sensor_id;sensor_type;location;lat;lon;timestamp;temperature;humidity
30304;DHT22;17112;48.636;10.152;2023-05-24T00:00:38;16.00;58.80
30304;DHT22;17112;48.636;10.152;2023-05-24T00:03:05;15.90;58.80
30304;DHT22;17112;48.636;10.152;2023-05-24T00:05:32;15.80;58.80
30304;DHT22;17112;48.636;10.152;2023-05-24T00:07:58;15.80;59.00
30304;DHT22;17112;48.636;10.152;2023-05-24T00:10:24;15.70;59.00
30304;DHT22;17112;48.636;10.152;2023-05-24T00:12:50;15.70;59.30
30304;DHT22;17112;48.636;10.152;2023-05-24T00:15:15;15.60;59.30
30304;DHT22;17112;48.636;10.152;2023-05-24T00:17:41;15.60;59.40
30304;DHT22;17112;48.636;10.152;2023-05-24T00:20:10;15.50;59.30
30304;DHT22;17112;48.636;10.152;2023-05-24T00:22:37;15.50;59.40
30304;DHT22;17112;48.636;10.152;2023-05-24T00:25:04;15.50;59.40
30304;DHT22;17112;48.636;10.152;2023-05-24T00:27:30;15.40;59.20
30304;DHT22;17112;48.636;10.152;2023-05-24T00:29:58;15.30;59.30
30304;DHT22;17112;48.636;10.152;2023-05-24T00:32:24;15.30;59.40
30304;DHT22;17112;48.636;10.152;2023-05-24T00:34:49;15.20;59.40
30304;DHT22;17112;48.636;10.152;2023-05-24T00:37:15;15.20;59.50
30304;DHT22;17112;48.636;10.152;2023-05-24T00:39:42;15.10;59.30
30304;DHT22;17112;48.636;10.152;2023-05-24T00:42:08;15.10;59.50
30304;DHT22;17112;48.636;10.152;2023-05-24T00:44:33;15.10;59.50
30304;DHT22;17112;48.636;10.152;2023-05-24T00:46:59;15.10;59.60
30304;DHT22;17112;48.636;10.152;2023-05-24T00:49:25;15.00;59.60
30304;DHT22;17112;48.636;10.152;2023-05-24T00:51:52;15.00;59.70
30304;DHT22;17112;48.636;10.152;2023-05-24T00:54:18;15.00;59.80
30304;DHT22;17112;48.636;10.152;2023-05-24T00:56:45;14.90;59.80
30304;DHT22;17112;48.636;10.152;2023-05-24T00:59:13;14.90;59.90
30304;DHT22;17112;48.636;10.152;2023-05-24T01:01:38;14.90;59.90
30304;DHT22;17112;48.636;10.152;2023-05-24T01:04:06;14.90;59.90
30304;DHT22;17112;48.636;10.152;2023-05-24T01:06:42;14.80;59.80
30304;DHT22;17112;48.636;10.152;2023-05-24T01:12:02;14.70;60.10
30304;DHT22;17112;48.636;10.152;2023-05-24T01:14:44;14.60;60.40
30304;DHT22;17112;48.636;10.152;2023-05-24T01:17:30;14.50;60.40
30304;DHT22;17112;48.636;10.152;2023-05-24T01:25:11;14.40;60.90
30304;DHT22;17112;48.636;10.152;2023-05-24T01:27:39;14.30;61.40
30304;DHT22;17112;48.636;10.152;2023-05-24T01:30:06;14.30;60.60
30304;DHT22;17112;48.636;10.152;2023-05-24T01:32:32;14.30;60.80
30304;DHT22;17112;48.636;10.152;2023-05-24T01:34:58;14.20;60.70
30304;DHT22;17112;48.636;10.152;2023-05-24T01:37:23;14.20;60.80
30304;DHT22;17112;48.636;10.152;2023-05-24T01:39:49;14.20;61.00
30304;DHT22;17112;48.636;10.152;2023-05-24T01:42:25;14.10;61.00
30304;DHT22;17112;48.636;10.152;2023-05-24T01:48:01;14.00;61.50
30304;DHT22;17112;48.636;10.152;2023-05-24T01:50:35;14.00;61.60
30304;DHT22;17112;48.636;10.152;2023-05-24T01:53:05;14.00;61.60
30304;DHT22;17112;48.636;10.152;2023-05-24T01:55:32;13.90;61.40
30304;DHT22;17112;48.636;10.152;2023-05-24T01:58:02;13.90;61.50
30304;DHT22;17112;48.636;10.152;2023-05-24T02:00:30;13.80;61.50
30304;DHT22;17112;48.636;10.152;2023-05-24T02:02:57;13.80;61.50
30304;DHT22;17112;48.636;10.152;2023-05-24T02:05:23;13.80;61.60
30304;DHT22;17112;48.636;10.152;2023-05-24T02:07:49;13.80;61.80
30304;DHT22;17112;48.636;10.152;2023-05-24T02:10:15;13.80;61.90
30304;DHT22;17112;48.636;10.152;2023-05-24T02:12:41;13.70;62.00
30304;DHT22;17112;48.636;10.152;2023-05-24T02:15:07;13.70;62.10
30304;DHT22;17112;48.636;10.152;2023-05-24T02:17:33;13.70;62.10
30304;DHT22;17112;48.636;10.152;2023-05-24T02:20:00;13.70;62.20
30304;DHT22;17112;48.636;10.152;2023-05-24T02:22:26;13.70;62.30
30304;DHT22;17112;48.636;10.152;2023-05-24T02:24:52;13.70;62.30
30304;DHT22;17112;48.636;10.152;2023-05-24T02:27:18;13.60;62.20
30304;DHT22;17112;48.636;10.152;2023-05-24T02:29:43;13.70;62.40
30304;DHT22;17112;48.636;10.152;2023-05-24T02:32:09;13.60;62.50
30304;DHT22;17112;48.636;10.152;2023-05-24T02:34:35;13.60;62.50
30304;DHT22;17112;48.636;10.152;2023-05-24T02:37:01;13.60;62.10
30304;DHT22;17112;48.636;10.152;2023-05-24T02:39:27;13.60;62.10
30304;DHT22;17112;48.636;10.152;2023-05-24T02:41:52;13.60;62.10
30304;DHT22;17112;48.636;10.152;2023-05-24T02:44:18;13.50;61.90
30304;DHT22;17112;48.636;10.152;2023-05-24T02:46:44;13.50;62.00
30304;DHT22;17112;48.636;10.152;2023-05-24T02:49:09;13.50;62.10
30304;DHT22;17112;48.636;10.152;2023-05-24T02:51:36;13.50;62.10
30304;DHT22;17112;48.636;10.152;2023-05-24T02:54:02;13.50;62.00
30304;DHT22;17112;48.636;10.152;2023-05-24T02:56:28;13.40;62.00
30304;DHT22;17112;48.636;10.152;2023-05-24T02:58:54;13.40;62.00
30304;DHT22;17112;48.636;10.152;2023-05-24T03:01:20;13.40;62.30
30304;DHT22;17112;48.636;10.152;2023-05-24T03:03:47;13.30;62.40
30304;DHT22;17112;48.636;10.152;2023-05-24T03:06:12;13.30;62.50
30304;DHT22;17112;48.636;10.152;2023-05-24T03:08:40;13.30;62.60
30304;DHT22;17112;48.636;10.152;2023-05-24T03:11:06;13.20;62.40
30304;DHT22;17112;48.636;10.152;2023-05-24T03:13:31;13.20;62.20
30304;DHT22;17112;48.636;10.152;2023-05-24T03:15:57;13.20;62.20
30304;DHT22;17112;48.636;10.152;2023-05-24T03:18:23;13.20;62.20
30304;DHT22;17112;48.636;10.152;2023-05-24T03:20:49;13.20;62.20
30304;DHT22;17112;48.636;10.152;2023-05-24T03:23:15;13.10;62.20
30304;DHT22;17112;48.636;10.152;2023-05-24T03:25:41;13.10;62.20
30304;DHT22;17112;48.636;10.152;2023-05-24T03:28:07;13.10;62.20
30304;DHT22;17112;48.636;10.152;2023-05-24T03:30:32;13.00;62.10
30304;DHT22;17112;48.636;10.152;2023-05-24T03:32:58;13.00;62.20
30304;DHT22;17112;48.636;10.152;2023-05-24T03:35:24;12.90;62.30
30304;DHT22;17112;48.636;10.152;2023-05-24T03:37:49;12.90;62.30
30304;DHT22;17112;48.636;10.152;2023-05-24T03:40:15;12.80;62.40
30304;DHT22;17112;48.636;10.152;2023-05-24T03:42:41;12.80;62.50
30304;DHT22;17112;48.636;10.152;2023-05-24T03:45:07;12.70;62.70
30304;DHT22;17112;48.636;10.152;2023-05-24T03:47:33;12.70;62.80
30304;DHT22;17112;48.636;10.152;2023-05-24T03:49:59;12.60;62.90
30304;DHT22;17112;48.636;10.152;2023-05-24T03:52:25;12.60;62.90
30304;DHT22;17112;48.636;10.152;2023-05-24T03:54:50;12.60;63.00
30304;DHT22;17112;48.636;10.152;2023-05-24T03:57:16;12.60;63.20
30304;DHT22;17112;48.636;10.152;2023-05-24T03:59:42;12.50;63.10
30304;DHT22;17112;48.636;10.152;2023-05-24T04:02:08;12.50;63.10
30304;DHT22;17112;48.636;10.152;2023-05-24T04:04:34;12.50;63.10
30304;DHT22;17112;48.636;10.152;2023-05-24T04:07:01;12.50;63.20
30304;DHT22;17112;48.636;10.152;2023-05-24T04:09:27;12.50;63.30
30304;DHT22;17112;48.636;10.152;2023-05-24T04:11:53;12.40;63.30
30304;DHT22;17112;48.636;10.152;2023-05-24T04:14:19;12.40;63.40
30304;DHT22;17112;48.636;10.152;2023-05-24T04:16:45;12.40;63.60
30304;DHT22;17112;48.636;10.152;2023-05-24T04:19:11;12.40;63.60
30304;DHT22;17112;48.636;10.152;2023-05-24T04:21:37;12.40;63.60
30304;DHT22;17112;48.636;10.152;2023-05-24T04:24:03;12.40;63.70
30304;DHT22;17112;48.636;10.152;2023-05-24T04:26:30;12.40;63.70
30304;DHT22;17112;48.636;10.152;2023-05-24T04:28:56;12.40;63.80
30304;DHT22;17112;48.636;10.152;2023-05-24T04:31:23;12.40;63.90
30304;DHT22;17112;48.636;10.152;2023-05-24T04:33:50;12.40;64.00
30304;DHT22;17112;48.636;10.152;2023-05-24T04:36:17;12.40;63.90
30304;DHT22;17112;48.636;10.152;2023-05-24T04:38:43;12.40;63.70
30304;DHT22;17112;48.636;10.152;2023-05-24T04:41:10;12.50;63.90
30304;DHT22;17112;48.636;10.152;2023-05-24T04:43:36;12.50;63.90
30304;DHT22;17112;48.636;10.152;2023-05-24T04:46:02;12.50;64.00
30304;DHT22;17112;48.636;10.152;2023-05-24T04:48:28;12.50;64.00
30304;DHT22;17112;48.636;10.152;2023-05-24T04:50:55;12.50;64.10
30304;DHT22;17112;48.636;10.152;2023-05-24T04:53:22;12.50;64.30
30304;DHT22;17112;48.636;10.152;2023-05-24T04:55:49;12.60;64.50
30304;DHT22;17112;48.636;10.152;2023-05-24T04:58:15;12.60;64.60
30304;DHT22;17112;48.636;10.152;2023-05-24T05:00:42;12.70;64.50
30304;DHT22;17112;48.636;10.152;2023-05-24T05:03:08;12.70;64.30
30304;DHT22;17112;48.636;10.152;2023-05-24T05:05:34;12.80;64.40
30304;DHT22;17112;48.636;10.152;2023-05-24T05:08:00;12.80;64.40
30304;DHT22;17112;48.636;10.152;2023-05-24T05:10:27;12.90;64.50
30304;DHT22;17112;48.636;10.152;2023-05-24T05:12:53;13.00;64.40
30304;DHT22;17112;48.636;10.152;2023-05-24T05:15:21;13.00;64.40
30304;DHT22;17112;48.636;10.152;2023-05-24T05:17:46;13.10;64.40
30304;DHT22;17112;48.636;10.152;2023-05-24T05:20:12;13.20;64.40
30304;DHT22;17112;48.636;10.152;2023-05-24T05:22:38;13.20;64.20
30304;DHT22;17112;48.636;10.152;2023-05-24T05:25:05;13.30;64.10
30304;DHT22;17112;48.636;10.152;2023-05-24T05:27:30;13.40;64.00
30304;DHT22;17112;48.636;10.152;2023-05-24T05:29:56;13.40;63.70
30304;DHT22;17112;48.636;10.152;2023-05-24T05:32:22;13.40;63.40
30304;DHT22;17112;48.636;10.152;2023-05-24T05:34:47;13.50;63.70
30304;DHT22;17112;48.636;10.152;2023-05-24T05:37:13;13.50;63.80
30304;DHT22;17112;48.636;10.152;2023-05-24T05:39:39;13.60;63.60
30304;DHT22;17112;48.636;10.152;2023-05-24T05:42:05;13.60;63.30
30304;DHT22;17112;48.636;10.152;2023-05-24T05:44:32;13.70;63.10
30304;DHT22;17112;48.636;10.152;2023-05-24T05:46:58;13.80;63.20
30304;DHT22;17112;48.636;10.152;2023-05-24T05:49:23;13.90;63.10
30304;DHT22;17112;48.636;10.152;2023-05-24T05:51:49;13.90;63.10
30304;DHT22;17112;48.636;10.152;2023-05-24T05:54:16;14.00;62.90
30304;DHT22;17112;48.636;10.152;2023-05-24T05:56:44;14.10;62.60
30304;DHT22;17112;48.636;10.152;2023-05-24T05:59:13;14.10;62.50
30304;DHT22;17112;48.636;10.152;2023-05-24T06:01:39;14.20;62.70
30304;DHT22;17112;48.636;10.152;2023-05-24T06:04:05;14.30;62.30
30304;DHT22;17112;48.636;10.152;2023-05-24T06:06:31;14.40;61.70
30304;DHT22;17112;48.636;10.152;2023-05-24T06:08:58;14.40;61.80
30304;DHT22;17112;48.636;10.152;2023-05-24T06:11:23;14.50;61.00
30304;DHT22;17112;48.636;10.152;2023-05-24T06:13:49;14.60;60.70
30304;DHT22;17112;48.636;10.152;2023-05-24T06:16:15;14.60;60.70
30304;DHT22;17112;48.636;10.152;2023-05-24T06:18:40;14.80;60.80
30304;DHT22;17112;48.636;10.152;2023-05-24T06:21:06;14.90;60.70
30304;DHT22;17112;48.636;10.152;2023-05-24T06:23:35;15.00;60.80
30304;DHT22;17112;48.636;10.152;2023-05-24T06:26:02;15.20;60.60
30304;DHT22;17112;48.636;10.152;2023-05-24T06:28:28;15.30;60.10
30304;DHT22;17112;48.636;10.152;2023-05-24T06:30:54;15.50;59.60
30304;DHT22;17112;48.636;10.152;2023-05-24T06:33:20;15.60;59.40
30304;DHT22;17112;48.636;10.152;2023-05-24T06:35:47;15.80;59.20
30304;DHT22;17112;48.636;10.152;2023-05-24T06:38:13;15.90;59.10
30304;DHT22;17112;48.636;10.152;2023-05-24T06:40:39;16.00;58.60
30304;DHT22;17112;48.636;10.152;2023-05-24T06:43:04;16.10;58.40
30304;DHT22;17112;48.636;10.152;2023-05-24T06:45:30;16.20;58.40
30304;DHT22;17112;48.636;10.152;2023-05-24T06:47:56;16.30;57.90
30304;DHT22;17112;48.636;10.152;2023-05-24T06:50:22;16.40;58.30
30304;DHT22;17112;48.636;10.152;2023-05-24T06:52:48;16.50;57.40
30304;DHT22;17112;48.636;10.152;2023-05-24T06:55:14;16.50;56.70
30304;DHT22;17112;48.636;10.152;2023-05-24T06:57:40;16.50;56.30
30304;DHT22;17112;48.636;10.152;2023-05-24T07:00:07;16.50;56.30
30304;DHT22;17112;48.636;10.152;2023-05-24T07:02:39;16.50;56.30
30304;DHT22;17112;48.636;10.152;2023-05-24T07:05:05;16.50;56.40
30304;DHT22;17112;48.636;10.152;2023-05-24T07:07:39;16.50;56.00
30304;DHT22;17112;48.636;10.152;2023-05-24T07:10:06;16.50;56.70
30304;DHT22;17112;48.636;10.152;2023-05-24T07:12:32;16.40;56.30
30304;DHT22;17112;48.636;10.152;2023-05-24T07:14:58;16.50;56.10
30304;DHT22;17112;48.636;10.152;2023-05-24T07:17:24;16.40;56.00
30304;DHT22;17112;48.636;10.152;2023-05-24T07:19:50;16.40;55.90
30304;DHT22;17112;48.636;10.152;2023-05-24T07:22:15;16.40;55.60
30304;DHT22;17112;48.636;10.152;2023-05-24T07:24:41;16.40;55.60
30304;DHT22;17112;48.636;10.152;2023-05-24T07:27:07;16.40;55.40
30304;DHT22;17112;48.636;10.152;2023-05-24T07:29:33;16.40;55.20
30304;DHT22;17112;48.636;10.152;2023-05-24T07:31:58;16.40;55.20
30304;DHT22;17112;48.636;10.152;2023-05-24T07:34:25;16.40;55.20
30304;DHT22;17112;48.636;10.152;2023-05-24T07:36:54;16.30;55.30
30304;DHT22;17112;48.636;10.152;2023-05-24T07:39:21;16.30;55.10
30304;DHT22;17112;48.636;10.152;2023-05-24T07:41:47;16.30;54.50
30304;DHT22;17112;48.636;10.152;2023-05-24T07:44:13;16.20;54.70
30304;DHT22;17112;48.636;10.152;2023-05-24T07:46:39;16.10;54.70
30304;DHT22;17112;48.636;10.152;2023-05-24T07:49:05;16.10;54.80
30304;DHT22;17112;48.636;10.152;2023-05-24T07:51:30;16.10;54.90
30304;DHT22;17112;48.636;10.152;2023-05-24T07:53:57;16.10;55.10
30304;DHT22;17112;48.636;10.152;2023-05-24T07:56:22;16.10;55.20
30304;DHT22;17112;48.636;10.152;2023-05-24T07:58:49;16.10;55.40
30304;DHT22;17112;48.636;10.152;2023-05-24T08:01:16;16.20;55.50
30304;DHT22;17112;48.636;10.152;2023-05-24T08:03:43;16.20;55.90
30304;DHT22;17112;48.636;10.152;2023-05-24T08:06:10;16.30;55.50
30304;DHT22;17112;48.636;10.152;2023-05-24T08:08:36;16.40;55.20
30304;DHT22;17112;48.636;10.152;2023-05-24T08:11:01;16.40;55.10
30304;DHT22;17112;48.636;10.152;2023-05-24T08:13:27;16.50;55.20
30304;DHT22;17112;48.636;10.152;2023-05-24T08:15:53;16.50;54.90
30304;DHT22;17112;48.636;10.152;2023-05-24T08:18:20;16.50;54.80
30304;DHT22;17112;48.636;10.152;2023-05-24T08:20:45;16.60;54.50
30304;DHT22;17112;48.636;10.152;2023-05-24T08:23:11;16.60;54.00
30304;DHT22;17112;48.636;10.152;2023-05-24T08:25:37;16.60;53.80
30304;DHT22;17112;48.636;10.152;2023-05-24T08:28:03;16.60;53.70
30304;DHT22;17112;48.636;10.152;2023-05-24T08:30:29;16.50;53.80
30304;DHT22;17112;48.636;10.152;2023-05-24T08:32:56;16.50;53.70
30304;DHT22;17112;48.636;10.152;2023-05-24T08:35:22;16.50;53.60
30304;DHT22;17112;48.636;10.152;2023-05-24T08:37:48;16.50;54.20
30304;DHT22;17112;48.636;10.152;2023-05-24T08:40:14;16.50;53.70
30304;DHT22;17112;48.636;10.152;2023-05-24T08:42:41;16.50;53.30
30304;DHT22;17112;48.636;10.152;2023-05-24T08:45:14;16.40;53.80
30304;DHT22;17112;48.636;10.152;2023-05-24T08:47:40;16.40;53.50
30304;DHT22;17112;48.636;10.152;2023-05-24T08:50:06;16.40;54.00
30304;DHT22;17112;48.636;10.152;2023-05-24T08:52:34;16.40;53.80
30304;DHT22;17112;48.636;10.152;2023-05-24T08:55:02;16.40;53.70
30304;DHT22;17112;48.636;10.152;2023-05-24T08:57:30;16.40;53.80
30304;DHT22;17112;48.636;10.152;2023-05-24T08:59:56;16.40;53.60
30304;DHT22;17112;48.636;10.152;2023-05-24T09:02:23;16.40;53.60
30304;DHT22;17112;48.636;10.152;2023-05-24T09:04:51;16.40;53.60
30304;DHT22;17112;48.636;10.152;2023-05-24T09:07:18;16.40;53.50
30304;DHT22;17112;48.636;10.152;2023-05-24T09:09:55;16.50;53.70
30304;DHT22;17112;48.636;10.152;2023-05-24T09:12:22;16.50;53.40
30304;DHT22;17112;48.636;10.152;2023-05-24T09:14:48;16.50;53.60
30304;DHT22;17112;48.636;10.152;2023-05-24T09:17:14;16.50;53.60
30304;DHT22;17112;48.636;10.152;2023-05-24T09:19:46;16.50;53.70
30304;DHT22;17112;48.636;10.152;2023-05-24T09:22:12;16.60;53.50
30304;DHT22;17112;48.636;10.152;2023-05-24T09:24:43;16.70;53.80
30304;DHT22;17112;48.636;10.152;2023-05-24T09:27:16;16.80;53.70
30304;DHT22;17112;48.636;10.152;2023-05-24T09:29:43;17.00;53.90
30304;DHT22;17112;48.636;10.152;2023-05-24T09:32:11;17.10;53.50
30304;DHT22;17112;48.636;10.152;2023-05-24T09:34:39;17.20;53.10
30304;DHT22;17112;48.636;10.152;2023-05-24T09:37:13;17.30;52.50
30304;DHT22;17112;48.636;10.152;2023-05-24T09:39:42;17.40;52.10
30304;DHT22;17112;48.636;10.152;2023-05-24T09:42:14;17.50;52.50
30304;DHT22;17112;48.636;10.152;2023-05-24T09:44:40;17.60;52.30
30304;DHT22;17112;48.636;10.152;2023-05-24T09:47:06;17.80;52.30
30304;DHT22;17112;48.636;10.152;2023-05-24T09:49:36;17.80;52.70
30304;DHT22;17112;48.636;10.152;2023-05-24T09:52:01;17.90;51.20
30304;DHT22;17112;48.636;10.152;2023-05-24T09:54:27;18.00;51.30
30304;DHT22;17112;48.636;10.152;2023-05-24T09:56:53;18.10;50.90
30304;DHT22;17112;48.636;10.152;2023-05-24T09:59:19;18.10;50.70
30304;DHT22;17112;48.636;10.152;2023-05-24T10:01:45;18.10;50.60
30304;DHT22;17112;48.636;10.152;2023-05-24T10:04:11;18.10;50.70
30304;DHT22;17112;48.636;10.152;2023-05-24T10:06:41;18.20;51.50
30304;DHT22;17112;48.636;10.152;2023-05-24T10:09:07;18.20;50.60
30304;DHT22;17112;48.636;10.152;2023-05-24T10:11:37;18.20;50.80
30304;DHT22;17112;48.636;10.152;2023-05-24T10:14:07;18.30;50.60
30304;DHT22;17112;48.636;10.152;2023-05-24T10:16:34;18.40;50.30
30304;DHT22;17112;48.636;10.152;2023-05-24T10:19:00;18.40;50.80
30304;DHT22;17112;48.636;10.152;2023-05-24T10:21:28;18.40;49.80
30304;DHT22;17112;48.636;10.152;2023-05-24T10:23:58;18.40;49.50
30304;DHT22;17112;48.636;10.152;2023-05-24T10:26:30;18.30;49.20
30304;DHT22;17112;48.636;10.152;2023-05-24T10:29:03;18.30;49.20
30304;DHT22;17112;48.636;10.152;2023-05-24T10:31:37;18.20;49.00
30304;DHT22;17112;48.636;10.152;2023-05-24T10:34:05;18.10;48.90
30304;DHT22;17112;48.636;10.152;2023-05-24T10:36:32;18.10;49.20
30304;DHT22;17112;48.636;10.152;2023-05-24T10:38:58;18.00;49.80
30304;DHT22;17112;48.636;10.152;2023-05-24T10:41:27;17.90;49.60
30304;DHT22;17112;48.636;10.152;2023-05-24T10:43:53;17.90;49.20
30304;DHT22;17112;48.636;10.152;2023-05-24T10:46:20;17.90;49.50
30304;DHT22;17112;48.636;10.152;2023-05-24T10:49:00;17.80;49.30
30304;DHT22;17112;48.636;10.152;2023-05-24T10:51:32;17.80;48.60
30304;DHT22;17112;48.636;10.152;2023-05-24T10:54:10;17.80;49.10
30304;DHT22;17112;48.636;10.152;2023-05-24T10:56:48;17.80;48.60
30304;DHT22;17112;48.636;10.152;2023-05-24T10:59:29;17.80;48.60
30304;DHT22;17112;48.636;10.152;2023-05-24T11:02:01;17.80;48.90
30304;DHT22;17112;48.636;10.152;2023-05-24T11:04:31;17.80;49.10
30304;DHT22;17112;48.636;10.152;2023-05-24T11:07:05;17.80;49.10
30304;DHT22;17112;48.636;10.152;2023-05-24T11:09:34;17.70;49.20
30304;DHT22;17112;48.636;10.152;2023-05-24T11:12:02;17.70;50.50
30304;DHT22;17112;48.636;10.152;2023-05-24T11:14:30;17.80;49.50
30304;DHT22;17112;48.636;10.152;2023-05-24T11:16:57;17.80;49.50
30304;DHT22;17112;48.636;10.152;2023-05-24T11:19:44;17.80;48.80
30304;DHT22;17112;48.636;10.152;2023-05-24T11:22:12;17.80;48.00
30304;DHT22;17112;48.636;10.152;2023-05-24T11:24:41;17.80;48.40
30304;DHT22;17112;48.636;10.152;2023-05-24T11:27:10;17.70;48.60
30304;DHT22;17112;48.636;10.152;2023-05-24T11:29:43;17.60;48.50
30304;DHT22;17112;48.636;10.152;2023-05-24T11:32:10;17.60;48.40
30304;DHT22;17112;48.636;10.152;2023-05-24T11:34:38;17.60;48.80
30304;DHT22;17112;48.636;10.152;2023-05-24T11:37:04;17.50;49.00
30304;DHT22;17112;48.636;10.152;2023-05-24T11:39:36;17.50;49.00
30304;DHT22;17112;48.636;10.152;2023-05-24T11:42:06;17.50;48.80
30304;DHT22;17112;48.636;10.152;2023-05-24T11:44:33;17.40;48.90
30304;DHT22;17112;48.636;10.152;2023-05-24T11:47:04;17.40;49.00
30304;DHT22;17112;48.636;10.152;2023-05-24T11:49:30;17.30;49.10
30304;DHT22;17112;48.636;10.152;2023-05-24T11:51:57;17.40;49.50
30304;DHT22;17112;48.636;10.152;2023-05-24T11:54:26;17.30;49.70
30304;DHT22;17112;48.636;10.152;2023-05-24T11:56:53;17.40;49.50
30304;DHT22;17112;48.636;10.152;2023-05-24T11:59:23;17.40;49.40
30304;DHT22;17112;48.636;10.152;2023-05-24T12:02:02;17.40;49.10
30304;DHT22;17112;48.636;10.152;2023-05-24T12:04:29;17.30;49.00
30304;DHT22;17112;48.636;10.152;2023-05-24T12:06:56;17.30;49.20
30304;DHT22;17112;48.636;10.152;2023-05-24T12:09:22;17.20;49.10
30304;DHT22;17112;48.636;10.152;2023-05-24T12:11:48;17.10;48.70
30304;DHT22;17112;48.636;10.152;2023-05-24T12:14:27;17.00;49.00
30304;DHT22;17112;48.636;10.152;2023-05-24T12:16:54;17.00;48.90
30304;DHT22;17112;48.636;10.152;2023-05-24T12:19:28;16.90;49.40
30304;DHT22;17112;48.636;10.152;2023-05-24T12:22:02;16.90;49.50
30304;DHT22;17112;48.636;10.152;2023-05-24T12:24:37;16.90;49.70
30304;DHT22;17112;48.636;10.152;2023-05-24T12:27:04;16.80;49.30
30304;DHT22;17112;48.636;10.152;2023-05-24T12:29:37;16.80;49.50
30304;DHT22;17112;48.636;10.152;2023-05-24T12:32:05;16.80;49.50
30304;DHT22;17112;48.636;10.152;2023-05-24T12:34:36;16.70;49.30
30304;DHT22;17112;48.636;10.152;2023-05-24T12:37:04;16.70;49.40
30304;DHT22;17112;48.636;10.152;2023-05-24T12:39:35;16.60;49.60
30304;DHT22;17112;48.636;10.152;2023-05-24T12:42:03;16.60;49.50
30304;DHT22;17112;48.636;10.152;2023-05-24T12:44:36;16.60;49.50
30304;DHT22;17112;48.636;10.152;2023-05-24T12:47:04;16.60;49.40
30304;DHT22;17112;48.636;10.152;2023-05-24T12:49:31;16.50;49.50
30304;DHT22;17112;48.636;10.152;2023-05-24T12:51:57;16.50;49.40
30304;DHT22;17112;48.636;10.152;2023-05-24T12:54:27;16.50;49.60
30304;DHT22;17112;48.636;10.152;2023-05-24T12:56:53;16.50;49.50
30304;DHT22;17112;48.636;10.152;2023-05-24T12:59:20;16.50;49.70
30304;DHT22;17112;48.636;10.152;2023-05-24T13:01:45;16.50;49.70
30304;DHT22;17112;48.636;10.152;2023-05-24T13:04:16;16.50;49.80
30304;DHT22;17112;48.636;10.152;2023-05-24T13:06:42;16.50;50.00
30304;DHT22;17112;48.636;10.152;2023-05-24T13:09:08;16.50;50.00
30304;DHT22;17112;48.636;10.152;2023-05-24T13:11:35;16.50;50.10
30304;DHT22;17112;48.636;10.152;2023-05-24T13:14:04;16.60;50.30
30304;DHT22;17112;48.636;10.152;2023-05-24T13:16:30;16.60;50.00
30304;DHT22;17112;48.636;10.152;2023-05-24T13:18:57;16.70;49.80
30304;DHT22;17112;48.636;10.152;2023-05-24T13:21:22;16.80;50.10
30304;DHT22;17112;48.636;10.152;2023-05-24T13:23:48;16.80;50.10
30304;DHT22;17112;48.636;10.152;2023-05-24T13:26:14;16.90;50.20
30304;DHT22;17112;48.636;10.152;2023-05-24T13:28:39;17.00;50.10
30304;DHT22;17112;48.636;10.152;2023-05-24T13:31:06;17.10;50.20
30304;DHT22;17112;48.636;10.152;2023-05-24T13:33:33;17.20;50.00
30304;DHT22;17112;48.636;10.152;2023-05-24T13:35:59;17.40;50.00
30304;DHT22;17112;48.636;10.152;2023-05-24T13:38:26;17.50;49.80
30304;DHT22;17112;48.636;10.152;2023-05-24T13:40:53;17.60;49.90
30304;DHT22;17112;48.636;10.152;2023-05-24T13:43:18;17.80;50.20
30304;DHT22;17112;48.636;10.152;2023-05-24T13:45:44;18.10;50.10
30304;DHT22;17112;48.636;10.152;2023-05-24T13:48:10;18.40;48.90
30304;DHT22;17112;48.636;10.152;2023-05-24T13:50:36;18.60;49.20
30304;DHT22;17112;48.636;10.152;2023-05-24T13:53:03;18.90;48.80
30304;DHT22;17112;48.636;10.152;2023-05-24T13:55:30;19.10;48.00
30304;DHT22;17112;48.636;10.152;2023-05-24T13:57:57;19.40;47.20
30304;DHT22;17112;48.636;10.152;2023-05-24T14:00:23;19.50;46.30
30304;DHT22;17112;48.636;10.152;2023-05-24T14:02:51;19.60;45.70
30304;DHT22;17112;48.636;10.152;2023-05-24T14:05:17;19.70;46.30
30304;DHT22;17112;48.636;10.152;2023-05-24T14:07:43;19.80;46.00
30304;DHT22;17112;48.636;10.152;2023-05-24T14:10:09;19.90;46.00
30304;DHT22;17112;48.636;10.152;2023-05-24T14:12:35;20.00;45.30
30304;DHT22;17112;48.636;10.152;2023-05-24T14:15:01;20.00;45.60
30304;DHT22;17112;48.636;10.152;2023-05-24T14:17:29;20.00;45.30
30304;DHT22;17112;48.636;10.152;2023-05-24T14:19:55;20.10;45.20
30304;DHT22;17112;48.636;10.152;2023-05-24T14:22:23;20.10;45.00
30304;DHT22;17112;48.636;10.152;2023-05-24T14:24:50;20.20;44.60
30304;DHT22;17112;48.636;10.152;2023-05-24T14:27:16;20.30;45.30
30304;DHT22;17112;48.636;10.152;2023-05-24T14:29:42;20.50;44.20
30304;DHT22;17112;48.636;10.152;2023-05-24T14:32:07;20.70;42.70
30304;DHT22;17112;48.636;10.152;2023-05-24T14:34:34;20.90;41.40
30304;DHT22;17112;48.636;10.152;2023-05-24T14:37:01;21.00;41.20
30304;DHT22;17112;48.636;10.152;2023-05-24T14:39:27;21.10;41.40
30304;DHT22;17112;48.636;10.152;2023-05-24T14:41:53;21.40;41.50
30304;DHT22;17112;48.636;10.152;2023-05-24T14:44:18;21.70;41.20
30304;DHT22;17112;48.636;10.152;2023-05-24T14:46:45;22.00;40.70
30304;DHT22;17112;48.636;10.152;2023-05-24T14:49:11;22.40;40.50
30304;DHT22;17112;48.636;10.152;2023-05-24T14:51:37;22.70;39.60
30304;DHT22;17112;48.636;10.152;2023-05-24T14:54:02;22.90;38.20
30304;DHT22;17112;48.636;10.152;2023-05-24T14:56:29;23.00;37.10
30304;DHT22;17112;48.636;10.152;2023-05-24T14:58:56;23.10;36.90
30304;DHT22;17112;48.636;10.152;2023-05-24T15:01:23;23.00;36.40
30304;DHT22;17112;48.636;10.152;2023-05-24T15:03:48;23.00;36.40
30304;DHT22;17112;48.636;10.152;2023-05-24T15:06:14;23.00;36.30
30304;DHT22;17112;48.636;10.152;2023-05-24T15:08:40;22.90;36.90
30304;DHT22;17112;48.636;10.152;2023-05-24T15:11:05;22.80;36.00
30304;DHT22;17112;48.636;10.152;2023-05-24T15:13:31;22.60;35.90
30304;DHT22;17112;48.636;10.152;2023-05-24T15:15:58;22.50;36.10
30304;DHT22;17112;48.636;10.152;2023-05-24T15:18:25;22.30;35.40
30304;DHT22;17112;48.636;10.152;2023-05-24T15:20:53;22.20;34.60
30304;DHT22;17112;48.636;10.152;2023-05-24T15:23:19;22.20;35.30
30304;DHT22;17112;48.636;10.152;2023-05-24T15:25:45;22.10;35.60